sensor_id;sensor_type;location;lat;lon;timestamp;P1;durP1;ratioP1;P2;durP2;ratioP2
72584;SDS011;60618;40.084;32.908;2022-11-20T00:01:27;19.57;;;9.27;;
72584;SDS011;60618;40.084;32.908;2022-11-20T00:03:56;19.00;;;9.60;;
72584;SDS011;60618;40.084;32.908;2022-11-20T00:06:24;17.30;;;8.85;;
72584;SDS011;60618;40.084;32.908;2022-11-20T00:08:56;21.10;;;9.63;;
72584;SDS011;60618;40.084;32.908;2022-11-20T00:11:24;20.70;;;8.93;;
72584;SDS011;60618;40.084;32.908;2022-11-20T00:13:54;20.23;;;9.17;;
72584;SDS011;60618;40.084;32.908;2022-11-20T00:16:24;17.98;;;8.43;;
72584;SDS011;60618;40.084;32.908;2022-11-20T00:18:53;19.08;;;9.40;;
72584;SDS011;60618;40.084;32.908;2022-11-20T00:21:26;17.23;;;8.65;;
72584;SDS011;60618;40.084;32.908;2022-11-20T00:23:55;21.95;;;9.07;;
72584;SDS011;60618;40.084;32.908;2022-11-20T00:26:25;19.40;;;8.90;;
72584;SDS011;60618;40.084;32.908;2022-11-20T00:28:55;14.90;;;7.60;;
72584;SDS011;60618;40.084;32.908;2022-11-20T00:31:24;17.15;;;7.85;;
72584;SDS011;60618;40.084;32.908;2022-11-20T00:33:52;13.30;;;7.03;;
72584;SDS011;60618;40.084;32.908;2022-11-20T00:36:20;18.08;;;7.85;;
72584;SDS011;60618;40.084;32.908;2022-11-20T00:38:53;24.70;;;11.13;;
72584;SDS011;60618;40.084;32.908;2022-11-20T00:41:21;25.25;;;11.38;;
72584;SDS011;60618;40.084;32.908;2022-11-20T00:43:48;16.02;;;8.55;;
72584;SDS011;60618;40.084;32.908;2022-11-20T00:46:19;19.00;;;10.70;;
72584;SDS011;60618;40.084;32.908;2022-11-20T00:48:48;17.88;;;8.65;;
72584;SDS011;60618;40.084;32.908;2022-11-20T00:51:16;19.50;;;9.47;;
72584;SDS011;60618;40.084;32.908;2022-11-20T00:53:46;24.05;;;11.52;;
72584;SDS011;60618;40.084;32.908;2022-11-20T00:56:16;19.25;;;8.85;;
72584;SDS011;60618;40.084;32.908;2022-11-20T00:58:45;22.13;;;10.18;;
72584;SDS011;60618;40.084;32.908;2022-11-20T01:01:23;22.10;;;11.10;;
72584;SDS011;60618;40.084;32.908;2022-11-20T01:03:52;22.17;;;11.70;;
72584;SDS011;60618;40.084;32.908;2022-11-20T01:06:22;20.80;;;10.05;;
72584;SDS011;60618;40.084;32.908;2022-11-20T01:08:53;20.45;;;10.35;;
72584;SDS011;60618;40.084;32.908;2022-11-20T01:11:22;18.95;;;8.63;;
72584;SDS011;60618;40.084;32.908;2022-11-20T01:13:51;18.10;;;9.23;;
72584;SDS011;60618;40.084;32.908;2022-11-20T01:16:20;18.87;;;9.40;;
72584;SDS011;60618;40.084;32.908;2022-11-20T01:18:50;22.52;;;10.57;;
72584;SDS011;60618;40.084;32.908;2022-11-20T01:23:54;18.98;;;8.57;;
72584;SDS011;60618;40.084;32.908;2022-11-20T01:26:23;16.02;;;8.50;;
72584;SDS011;60618;40.084;32.908;2022-11-20T01:28:53;20.00;;;9.43;;
72584;SDS011;60618;40.084;32.908;2022-11-20T01:33:51;15.55;;;8.60;;
72584;SDS011;60618;40.084;32.908;2022-11-20T01:36:20;18.40;;;9.43;;
72584;SDS011;60618;40.084;32.908;2022-11-20T01:38:52;14.63;;;8.10;;
72584;SDS011;60618;40.084;32.908;2022-11-20T01:41:24;25.73;;;12.10;;
72584;SDS011;60618;40.084;32.908;2022-11-20T01:43:52;27.60;;;12.93;;
72584;SDS011;60618;40.084;32.908;2022-11-20T01:46:19;23.13;;;12.85;;
72584;SDS011;60618;40.084;32.908;2022-11-20T01:54:14;22.37;;;12.27;;
72584;SDS011;60618;40.084;32.908;2022-11-20T01:56:46;21.75;;;12.55;;
72584;SDS011;60618;40.084;32.908;2022-11-20T01:59:18;21.85;;;11.40;;
72584;SDS011;60618;40.084;32.908;2022-11-20T02:01:47;20.15;;;10.20;;
72584;SDS011;60618;40.084;32.908;2022-11-20T02:04:18;16.65;;;9.52;;
72584;SDS011;60618;40.084;32.908;2022-11-20T02:06:50;19.53;;;9.03;;
72584;SDS011;60618;40.084;32.908;2022-11-20T02:09:23;17.85;;;8.32;;
72584;SDS011;60618;40.084;32.908;2022-11-20T02:11:50;17.70;;;8.45;;
72584;SDS011;60618;40.084;32.908;2022-11-20T02:14:18;16.52;;;8.80;;
72584;SDS011;60618;40.084;32.908;2022-11-20T02:16:47;18.50;;;10.23;;
72584;SDS011;60618;40.084;32.908;2022-11-20T02:22:17;20.10;;;9.77;;
72584;SDS011;60618;40.084;32.908;2022-11-20T02:24:52;14.88;;;7.88;;
72584;SDS011;60618;40.084;32.908;2022-11-20T02:27:19;17.75;;;8.55;;
72584;SDS011;60618;40.084;32.908;2022-11-20T02:29:53;16.85;;;9.20;;
72584;SDS011;60618;40.084;32.908;2022-11-20T02:32:28;17.83;;;9.70;;
72584;SDS011;60618;40.084;32.908;2022-11-20T02:34:57;16.27;;;8.27;;
72584;SDS011;60618;40.084;32.908;2022-11-20T02:37:30;19.02;;;8.90;;
72584;SDS011;60618;40.084;32.908;2022-11-20T02:40:00;19.67;;;9.27;;
72584;SDS011;60618;40.084;32.908;2022-11-20T02:42:27;16.80;;;8.50;;
72584;SDS011;60618;40.084;32.908;2022-11-20T02:44:55;15.27;;;7.20;;
72584;SDS011;60618;40.084;32.908;2022-11-20T02:47:22;15.32;;;7.80;;
72584;SDS011;60618;40.084;32.908;2022-11-20T02:49:49;13.80;;;6.97;;
72584;SDS011;60618;40.084;32.908;2022-11-20T02:52:16;15.98;;;8.32;;
72584;SDS011;60618;40.084;32.908;2022-11-20T02:54:43;16.20;;;7.95;;
72584;SDS011;60618;40.084;32.908;2022-11-20T02:57:12;13.93;;;6.60;;
72584;SDS011;60618;40.084;32.908;2022-11-20T02:59:40;13.88;;;6.82;;
72584;SDS011;60618;40.084;32.908;2022-11-20T03:02:06;15.15;;;7.70;;
72584;SDS011;60618;40.084;32.908;2022-11-20T03:04:33;13.35;;;6.35;;
72584;SDS011;60618;40.084;32.908;2022-11-20T03:07:01;11.73;;;6.72;;
72584;SDS011;60618;40.084;32.908;2022-11-20T03:09:28;14.30;;;6.00;;
72584;SDS011;60618;40.084;32.908;2022-11-20T03:11:56;11.45;;;6.30;;
72584;SDS011;60618;40.084;32.908;2022-11-20T03:14:23;10.98;;;5.60;;
72584;SDS011;60618;40.084;32.908;2022-11-20T03:16:50;17.83;;;8.27;;
72584;SDS011;60618;40.084;32.908;2022-11-20T03:19:18;14.52;;;7.70;;
72584;SDS011;60618;40.084;32.908;2022-11-20T03:21:45;13.17;;;7.40;;
72584;SDS011;60618;40.084;32.908;2022-11-20T03:24:13;16.75;;;8.40;;
72584;SDS011;60618;40.084;32.908;2022-11-20T03:26:40;16.13;;;8.32;;
72584;SDS011;60618;40.084;32.908;2022-11-20T03:29:08;20.38;;;10.57;;
72584;SDS011;60618;40.084;32.908;2022-11-20T03:31:35;19.77;;;10.60;;
72584;SDS011;60618;40.084;32.908;2022-11-20T03:34:04;18.50;;;9.00;;
72584;SDS011;60618;40.084;32.908;2022-11-20T03:36:31;16.05;;;7.97;;
72584;SDS011;60618;40.084;32.908;2022-11-20T03:38:58;18.20;;;7.63;;
72584;SDS011;60618;40.084;32.908;2022-11-20T03:41:26;17.45;;;7.75;;
72584;SDS011;60618;40.084;32.908;2022-11-20T03:43:56;18.88;;;10.00;;
72584;SDS011;60618;40.084;32.908;2022-11-20T03:46:27;21.90;;;9.43;;
72584;SDS011;60618;40.084;32.908;2022-11-20T03:48:55;23.10;;;10.13;;
72584;SDS011;60618;40.084;32.908;2022-11-20T03:51:23;17.63;;;9.85;;
72584;SDS011;60618;40.084;32.908;2022-11-20T03:53:52;17.90;;;8.52;;
72584;SDS011;60618;40.084;32.908;2022-11-20T03:56:28;21.52;;;11.73;;
72584;SDS011;60618;40.084;32.908;2022-11-20T03:58:58;20.43;;;10.20;;
72584;SDS011;60618;40.084;32.908;2022-11-20T04:01:26;21.25;;;10.68;;
72584;SDS011;60618;40.084;32.908;2022-11-20T04:03:55;22.95;;;11.00;;
72584;SDS011;60618;40.084;32.908;2022-11-20T04:06:24;20.30;;;10.23;;
72584;SDS011;60618;40.084;32.908;2022-11-20T04:09:01;17.02;;;8.63;;
72584;SDS011;60618;40.084;32.908;2022-11-20T04:11:30;22.73;;;11.60;;
72584;SDS011;60618;40.084;32.908;2022-11-20T04:13:59;26.20;;;12.55;;
72584;SDS011;60618;40.084;32.908;2022-11-20T04:16:32;22.48;;;12.25;;
72584;SDS011;60618;40.084;32.908;2022-11-20T04:19:01;16.52;;;8.40;;
72584;SDS011;60618;40.084;32.908;2022-11-20T04:21:30;17.65;;;8.13;;
72584;SDS011;60618;40.084;32.908;2022-11-20T04:23:57;17.23;;;7.90;;
72584;SDS011;60618;40.084;32.908;2022-11-20T04:26:24;18.88;;;8.88;;
72584;SDS011;60618;40.084;32.908;2022-11-20T04:28:54;16.63;;;8.20;;
72584;SDS011;60618;40.084;32.908;2022-11-20T04:31:22;14.40;;;7.60;;
72584;SDS011;60618;40.084;32.908;2022-11-20T04:33:52;19.42;;;9.40;;
72584;SDS011;60618;40.084;32.908;2022-11-20T04:36:23;15.53;;;7.20;;
72584;SDS011;60618;40.084;32.908;2022-11-20T04:39:13;14.60;;;7.55;;
72584;SDS011;60618;40.084;32.908;2022-11-20T04:41:39;13.05;;;6.90;;
72584;SDS011;60618;40.084;32.908;2022-11-20T04:44:06;14.68;;;7.10;;
72584;SDS011;60618;40.084;32.908;2022-11-20T04:46:34;15.57;;;8.48;;
72584;SDS011;60618;40.084;32.908;2022-11-20T04:49:02;17.47;;;9.00;;
72584;SDS011;60618;40.084;32.908;2022-11-20T04:51:30;15.50;;;7.63;;
72584;SDS011;60618;40.084;32.908;2022-11-20T04:53:57;14.75;;;7.03;;
72584;SDS011;60618;40.084;32.908;2022-11-20T04:56:24;16.95;;;8.48;;
72584;SDS011;60618;40.084;32.908;2022-11-20T04:58:51;18.70;;;8.00;;
72584;SDS011;60618;40.084;32.908;2022-11-20T05:01:20;13.83;;;6.97;;
72584;SDS011;60618;40.084;32.908;2022-11-20T05:03:49;15.48;;;6.93;;
72584;SDS011;60618;40.084;32.908;2022-11-20T05:06:17;14.02;;;7.95;;
72584;SDS011;60618;40.084;32.908;2022-11-20T05:08:45;14.38;;;7.38;;
72584;SDS011;60618;40.084;32.908;2022-11-20T05:11:14;15.10;;;8.32;;
72584;SDS011;60618;40.084;32.908;2022-11-20T05:13:43;14.40;;;8.03;;
72584;SDS011;60618;40.084;32.908;2022-11-20T05:16:15;21.80;;;10.63;;
72584;SDS011;60618;40.084;32.908;2022-11-20T05:18:46;20.63;;;11.25;;
72584;SDS011;60618;40.084;32.908;2022-11-20T05:21:13;21.52;;;12.15;;
72584;SDS011;60618;40.084;32.908;2022-11-20T05:23:41;22.35;;;11.57;;
72584;SDS011;60618;40.084;32.908;2022-11-20T05:26:13;21.53;;;11.43;;
72584;SDS011;60618;40.084;32.908;2022-11-20T05:28:41;20.92;;;11.38;;
72584;SDS011;60618;40.084;32.908;2022-11-20T05:31:09;20.17;;;12.10;;
72584;SDS011;60618;40.084;32.908;2022-11-20T05:33:39;16.65;;;10.15;;
72584;SDS011;60618;40.084;32.908;2022-11-20T05:36:07;19.23;;;9.50;;
72584;SDS011;60618;40.084;32.908;2022-11-20T05:38:35;21.60;;;10.40;;
72584;SDS011;60618;40.084;32.908;2022-11-20T05:41:02;21.27;;;11.13;;
72584;SDS011;60618;40.084;32.908;2022-11-20T05:43:34;27.35;;;14.43;;
72584;SDS011;60618;40.084;32.908;2022-11-20T05:46:02;26.55;;;13.32;;
72584;SDS011;60618;40.084;32.908;2022-11-20T05:48:30;35.50;;;18.58;;
72584;SDS011;60618;40.084;32.908;2022-11-20T05:50:58;38.43;;;19.37;;
72584;SDS011;60618;40.084;32.908;2022-11-20T05:53:26;39.65;;;19.08;;
72584;SDS011;60618;40.084;32.908;2022-11-20T05:55:59;36.00;;;18.00;;
72584;SDS011;60618;40.084;32.908;2022-11-20T05:58:27;31.45;;;16.30;;
72584;SDS011;60618;40.084;32.908;2022-11-20T06:00:58;30.27;;;15.02;;
72584;SDS011;60618;40.084;32.908;2022-11-20T06:03:40;31.67;;;16.67;;
72584;SDS011;60618;40.084;32.908;2022-11-20T06:06:08;37.58;;;20.70;;
72584;SDS011;60618;40.084;32.908;2022-11-20T06:08:35;42.63;;;19.63;;
72584;SDS011;60618;40.084;32.908;2022-11-20T06:11:05;36.97;;;17.83;;
72584;SDS011;60618;40.084;32.908;2022-11-20T06:13:33;31.70;;;18.27;;
72584;SDS011;60618;40.084;32.908;2022-11-20T06:16:07;37.23;;;19.20;;
72584;SDS011;60618;40.084;32.908;2022-11-20T06:18:34;37.85;;;18.40;;
72584;SDS011;60618;40.084;32.908;2022-11-20T06:21:05;33.05;;;18.10;;
72584;SDS011;60618;40.084;32.908;2022-11-20T06:23:34;32.13;;;17.75;;
72584;SDS011;60618;40.084;32.908;2022-11-20T06:26:06;34.50;;;17.40;;
72584;SDS011;60618;40.084;32.908;2022-11-20T06:28:34;33.07;;;16.50;;
72584;SDS011;60618;40.084;32.908;2022-11-20T06:31:02;29.42;;;14.70;;
72584;SDS011;60618;40.084;32.908;2022-11-20T06:33:31;27.20;;;14.73;;
72584;SDS011;60618;40.084;32.908;2022-11-20T06:35:59;27.38;;;15.35;;
72584;SDS011;60618;40.084;32.908;2022-11-20T06:38:32;28.95;;;15.55;;
72584;SDS011;60618;40.084;32.908;2022-11-20T06:40:59;30.60;;;16.47;;
72584;SDS011;60618;40.084;32.908;2022-11-20T06:43:28;31.60;;;15.68;;
72584;SDS011;60618;40.084;32.908;2022-11-20T06:45:56;31.48;;;16.38;;
72584;SDS011;60618;40.084;32.908;2022-11-20T06:48:25;27.17;;;15.93;;
72584;SDS011;60618;40.084;32.908;2022-11-20T06:50:53;31.95;;;18.17;;
72584;SDS011;60618;40.084;32.908;2022-11-20T06:53:21;31.33;;;16.97;;
72584;SDS011;60618;40.084;32.908;2022-11-20T06:55:49;34.83;;;18.77;;
72584;SDS011;60618;40.084;32.908;2022-11-20T06:58:18;39.50;;;20.55;;
72584;SDS011;60618;40.084;32.908;2022-11-20T07:00:45;32.22;;;19.60;;
72584;SDS011;60618;40.084;32.908;2022-11-20T07:03:12;37.50;;;17.83;;
72584;SDS011;60618;40.084;32.908;2022-11-20T07:05:39;41.20;;;24.50;;
72584;SDS011;60618;40.084;32.908;2022-11-20T07:08:06;42.13;;;21.98;;
72584;SDS011;60618;40.084;32.908;2022-11-20T07:10:35;37.60;;;19.85;;
72584;SDS011;60618;40.084;32.908;2022-11-20T07:13:02;35.95;;;19.20;;
72584;SDS011;60618;40.084;32.908;2022-11-20T07:15:29;34.58;;;20.05;;
72584;SDS011;60618;40.084;32.908;2022-11-20T07:17:59;33.77;;;18.03;;
72584;SDS011;60618;40.084;32.908;2022-11-20T07:20:26;35.03;;;18.67;;
72584;SDS011;60618;40.084;32.908;2022-11-20T07:22:54;35.38;;;19.38;;
72584;SDS011;60618;40.084;32.908;2022-11-20T07:25:23;33.10;;;17.85;;
72584;SDS011;60618;40.084;32.908;2022-11-20T07:27:57;31.67;;;17.60;;
72584;SDS011;60618;40.084;32.908;2022-11-20T07:30:25;30.53;;;15.77;;
72584;SDS011;60618;40.084;32.908;2022-11-20T07:32:54;26.75;;;15.68;;
72584;SDS011;60618;40.084;32.908;2022-11-20T07:35:31;25.42;;;13.80;;
72584;SDS011;60618;40.084;32.908;2022-11-20T07:37:58;32.58;;;16.35;;
72584;SDS011;60618;40.084;32.908;2022-11-20T07:40:25;37.65;;;18.02;;
72584;SDS011;60618;40.084;32.908;2022-11-20T07:42:53;42.00;;;20.57;;
72584;SDS011;60618;40.084;32.908;2022-11-20T07:45:22;42.28;;;21.42;;
72584;SDS011;60618;40.084;32.908;2022-11-20T07:47:50;41.28;;;21.17;;
72584;SDS011;60618;40.084;32.908;2022-11-20T07:50:18;34.33;;;19.05;;
72584;SDS011;60618;40.084;32.908;2022-11-20T07:52:46;38.25;;;20.92;;
72584;SDS011;60618;40.084;32.908;2022-11-20T07:55:14;35.47;;;19.33;;
72584;SDS011;60618;40.084;32.908;2022-11-20T07:57:41;36.30;;;19.63;;
72584;SDS011;60618;40.084;32.908;2022-11-20T08:00:09;32.05;;;19.40;;
72584;SDS011;60618;40.084;32.908;2022-11-20T08:02:37;29.95;;;17.38;;
72584;SDS011;60618;40.084;32.908;2022-11-20T08:05:05;28.23;;;16.15;;
72584;SDS011;60618;40.084;32.908;2022-11-20T08:07:39;26.77;;;15.87;;
72584;SDS011;60618;40.084;32.908;2022-11-20T08:10:09;25.90;;;15.18;;
72584;SDS011;60618;40.084;32.908;2022-11-20T08:12:47;27.77;;;15.07;;
72584;SDS011;60618;40.084;32.908;2022-11-20T08:15:16;25.17;;;13.90;;
72584;SDS011;60618;40.084;32.908;2022-11-20T08:17:43;29.02;;;15.88;;
72584;SDS011;60618;40.084;32.908;2022-11-20T08:20:30;26.77;;;15.07;;
72584;SDS011;60618;40.084;32.908;2022-11-20T08:22:58;24.30;;;13.73;;
72584;SDS011;60618;40.084;32.908;2022-11-20T08:25:29;25.58;;;15.20;;
72584;SDS011;60618;40.084;32.908;2022-11-20T08:28:00;32.00;;;15.43;;
72584;SDS011;60618;40.084;32.908;2022-11-20T08:30:41;29.05;;;14.80;;
72584;SDS011;60618;40.084;32.908;2022-11-20T08:33:08;28.50;;;15.23;;
72584;SDS011;60618;40.084;32.908;2022-11-20T08:35:35;28.17;;;14.13;;
72584;SDS011;60618;40.084;32.908;2022-11-20T08:38:03;25.42;;;15.38;;
72584;SDS011;60618;40.084;32.908;2022-11-20T08:40:32;32.45;;;15.88;;
72584;SDS011;60618;40.084;32.908;2022-11-20T08:43:01;28.23;;;16.38;;
72584;SDS011;60618;40.084;32.908;2022-11-20T08:45:28;37.83;;;20.23;;
72584;SDS011;60618;40.084;32.908;2022-11-20T08:48:00;40.33;;;21.63;;
72584;SDS011;60618;40.084;32.908;2022-11-20T08:50:30;34.10;;;18.95;;
72584;SDS011;60618;40.084;32.908;2022-11-20T08:53:01;33.92;;;19.05;;
72584;SDS011;60618;40.084;32.908;2022-11-20T08:55:32;36.42;;;19.58;;
72584;SDS011;60618;40.084;32.908;2022-11-20T08:58:02;33.97;;;18.27;;
72584;SDS011;60618;40.084;32.908;2022-11-20T09:00:30;34.47;;;19.27;;
72584;SDS011;60618;40.084;32.908;2022-11-20T09:02:59;42.03;;;22.30;;
72584;SDS011;60618;40.084;32.908;2022-11-20T09:05:26;34.67;;;19.60;;
72584;SDS011;60618;40.084;32.908;2022-11-20T09:07:56;33.55;;;18.55;;
72584;SDS011;60618;40.084;32.908;2022-11-20T09:10:29;33.43;;;18.27;;
72584;SDS011;60618;40.084;32.908;2022-11-20T09:12:56;32.55;;;18.33;;
72584;SDS011;60618;40.084;32.908;2022-11-20T09:15:29;32.15;;;17.83;;
72584;SDS011;60618;40.084;32.908;2022-11-20T09:17:59;30.83;;;17.65;;
72584;SDS011;60618;40.084;32.908;2022-11-20T09:20:28;24.65;;;13.93;;
72584;SDS011;60618;40.084;32.908;2022-11-20T09:22:56;18.83;;;10.47;;
72584;SDS011;60618;40.084;32.908;2022-11-20T09:25:24;20.42;;;10.20;;
72584;SDS011;60618;40.084;32.908;2022-11-20T09:27:59;26.02;;;14.18;;
72584;SDS011;60618;40.084;32.908;2022-11-20T09:30:26;24.73;;;13.05;;
72584;SDS011;60618;40.084;32.908;2022-11-20T09:32:54;26.40;;;13.60;;
72584;SDS011;60618;40.084;32.908;2022-11-20T09:35:21;27.63;;;14.10;;
72584;SDS011;60618;40.084;32.908;2022-11-20T09:37:48;24.75;;;11.82;;
72584;SDS011;60618;40.084;32.908;2022-11-20T09:40:19;24.42;;;13.88;;
72584;SDS011;60618;40.084;32.908;2022-11-20T09:54:13;25.70;;;12.27;;
72584;SDS011;60618;40.084;32.908;2022-11-20T09:56:45;26.50;;;12.68;;
72584;SDS011;60618;40.084;32.908;2022-11-20T09:59:38;30.65;;;13.68;;
72584;SDS011;60618;40.084;32.908;2022-11-20T10:02:25;25.63;;;12.77;;
72584;SDS011;60618;40.084;32.908;2022-11-20T10:04:59;25.30;;;12.00;;
72584;SDS011;60618;40.084;32.908;2022-11-20T10:10:17;22.90;;;11.10;;
72584;SDS011;60618;40.084;32.908;2022-11-20T10:13:00;19.80;;;9.93;;
72584;SDS011;60618;40.084;32.908;2022-11-20T10:18:23;17.00;;;8.63;;
72584;SDS011;60618;40.084;32.908;2022-11-20T10:21:15;11.98;;;5.20;;
72584;SDS011;60618;40.084;32.908;2022-11-20T10:26:21;11.32;;;5.60;;
72584;SDS011;60618;40.084;32.908;2022-11-20T10:29:36;19.40;;;8.80;;
72584;SDS011;60618;40.084;32.908;2022-11-20T10:32:11;8.90;;;4.75;;
72584;SDS011;60618;40.084;32.908;2022-11-20T10:37:17;18.83;;;9.85;;
72584;SDS011;60618;40.084;32.908;2022-11-20T10:42:59;15.17;;;7.93;;
72584;SDS011;60618;40.084;32.908;2022-11-20T10:45:31;14.68;;;8.15;;
72584;SDS011;60618;40.084;32.908;2022-11-20T10:50:34;16.08;;;8.05;;
72584;SDS011;60618;40.084;32.908;2022-11-20T10:58:41;11.85;;;4.60;;
72584;SDS011;60618;40.084;32.908;2022-11-20T11:01:19;12.77;;;5.63;;
72584;SDS011;60618;40.084;32.908;2022-11-20T11:03:47;16.05;;;7.88;;
72584;SDS011;60618;40.084;32.908;2022-11-20T11:09:16;16.50;;;7.70;;
72584;SDS011;60618;40.084;32.908;2022-11-20T11:11:47;15.55;;;7.85;;
72584;SDS011;60618;40.084;32.908;2022-11-20T11:14:14;17.73;;;7.72;;
72584;SDS011;60618;40.084;32.908;2022-11-20T11:16:55;15.38;;;8.20;;
72584;SDS011;60618;40.084;32.908;2022-11-20T11:19:23;14.98;;;8.10;;
72584;SDS011;60618;40.084;32.908;2022-11-20T11:21:55;16.83;;;7.57;;
72584;SDS011;60618;40.084;32.908;2022-11-20T11:27:11;14.43;;;6.40;;
72584;SDS011;60618;40.084;32.908;2022-11-20T11:29:43;13.20;;;6.78;;
72584;SDS011;60618;40.084;32.908;2022-11-20T11:34:41;15.00;;;7.07;;
72584;SDS011;60618;40.084;32.908;2022-11-20T11:37:18;13.68;;;6.82;;
72584;SDS011;60618;40.084;32.908;2022-11-20T11:39:47;16.42;;;7.28;;
72584;SDS011;60618;40.084;32.908;2022-11-20T11:42:34;15.38;;;7.05;;
72584;SDS011;60618;40.084;32.908;2022-11-20T11:45:11;16.60;;;7.50;;
72584;SDS011;60618;40.084;32.908;2022-11-20T11:53:21;18.10;;;8.20;;
72584;SDS011;60618;40.084;32.908;2022-11-20T12:01:03;16.93;;;7.27;;
72584;SDS011;60618;40.084;32.908;2022-11-20T12:03:38;12.57;;;6.47;;
72584;SDS011;60618;40.084;32.908;2022-11-20T12:06:10;15.80;;;7.30;;
72584;SDS011;60618;40.084;32.908;2022-11-20T12:16:29;16.98;;;7.28;;
72584;SDS011;60618;40.084;32.908;2022-11-20T12:19:00;15.48;;;7.10;;
72584;SDS011;60618;40.084;32.908;2022-11-20T12:40:01;9.43;;;3.80;;
72584;SDS011;60618;40.084;32.908;2022-11-20T13:08:35;11.40;;;4.40;;
72584;SDS011;60618;40.084;32.908;2022-11-20T13:11:16;10.73;;;4.38;;
72584;SDS011;60618;40.084;32.908;2022-11-20T13:16:30;13.57;;;4.93;;
72584;SDS011;60618;40.084;32.908;2022-11-20T13:19:05;11.75;;;4.10;;
72584;SDS011;60618;40.084;32.908;2022-11-20T13:21:38;12.03;;;4.00;;
72584;SDS011;60618;40.084;32.908;2022-11-20T13:26:47;13.20;;;3.88;;
72584;SDS011;60618;40.084;32.908;2022-11-20T13:29:18;13.65;;;4.20;;
72584;SDS011;60618;40.084;32.908;2022-11-20T13:31:46;14.45;;;4.45;;
72584;SDS011;60618;40.084;32.908;2022-11-20T13:34:25;11.87;;;4.70;;
72584;SDS011;60618;40.084;32.908;2022-11-20T13:36:54;15.10;;;4.38;;
72584;SDS011;60618;40.084;32.908;2022-11-20T13:39:25;11.23;;;4.15;;
72584;SDS011;60618;40.084;32.908;2022-11-20T13:42:03;12.35;;;4.95;;
72584;SDS011;60618;40.084;32.908;2022-11-20T13:45:00;13.38;;;5.35;;
72584;SDS011;60618;40.084;32.908;2022-11-20T14:02:39;11.90;;;4.72;;
72584;SDS011;60618;40.084;32.908;2022-11-20T14:05:12;11.63;;;4.77;;
72584;SDS011;60618;40.084;32.908;2022-11-20T14:07:45;13.65;;;4.70;;
72584;SDS011;60618;40.084;32.908;2022-11-20T14:10:28;14.88;;;5.15;;
72584;SDS011;60618;40.084;32.908;2022-11-20T14:12:57;11.52;;;5.28;;
72584;SDS011;60618;40.084;32.908;2022-11-20T14:15:26;12.32;;;4.70;;
72584;SDS011;60618;40.084;32.908;2022-11-20T14:17:55;8.60;;;3.90;;
72584;SDS011;60618;40.084;32.908;2022-11-20T14:20:23;10.52;;;4.05;;
72584;SDS011;60618;40.084;32.908;2022-11-20T14:22:55;12.25;;;4.40;;
72584;SDS011;60618;40.084;32.908;2022-11-20T14:25:23;13.02;;;4.20;;
72584;SDS011;60618;40.084;32.908;2022-11-20T14:27:53;10.65;;;4.05;;
72584;SDS011;60618;40.084;32.908;2022-11-20T14:30:23;9.93;;;3.90;;
72584;SDS011;60618;40.084;32.908;2022-11-20T14:33:11;12.18;;;4.38;;
72584;SDS011;60618;40.084;32.908;2022-11-20T14:35:44;13.52;;;4.57;;
72584;SDS011;60618;40.084;32.908;2022-11-20T14:38:13;15.77;;;5.18;;
72584;SDS011;60618;40.084;32.908;2022-11-20T14:40:43;12.27;;;4.80;;
72584;SDS011;60618;40.084;32.908;2022-11-20T14:43:20;12.27;;;5.00;;
72584;SDS011;60618;40.084;32.908;2022-11-20T14:46:02;15.57;;;5.63;;
72584;SDS011;60618;40.084;32.908;2022-11-20T14:48:35;14.18;;;5.53;;
72584;SDS011;60618;40.084;32.908;2022-11-20T14:51:05;11.27;;;4.60;;
72584;SDS011;60618;40.084;32.908;2022-11-20T14:53:32;10.02;;;4.53;;
72584;SDS011;60618;40.084;32.908;2022-11-20T14:55:59;17.40;;;4.90;;
72584;SDS011;60618;40.084;32.908;2022-11-20T14:58:32;17.00;;;6.13;;
72584;SDS011;60618;40.084;32.908;2022-11-20T15:01:03;26.50;;;9.52;;
72584;SDS011;60618;40.084;32.908;2022-11-20T15:03:35;18.23;;;7.63;;
72584;SDS011;60618;40.084;32.908;2022-11-20T15:06:04;14.88;;;6.18;;
72584;SDS011;60618;40.084;32.908;2022-11-20T15:08:32;16.37;;;7.23;;
72584;SDS011;60618;40.084;32.908;2022-11-20T15:11:00;22.67;;;10.10;;
72584;SDS011;60618;40.084;32.908;2022-11-20T15:13:37;23.45;;;9.68;;
72584;SDS011;60618;40.084;32.908;2022-11-20T15:16:13;20.25;;;9.18;;
72584;SDS011;60618;40.084;32.908;2022-11-20T15:18:45;20.90;;;9.18;;
72584;SDS011;60618;40.084;32.908;2022-11-20T15:21:16;19.27;;;8.33;;
72584;SDS011;60618;40.084;32.908;2022-11-20T15:23:44;18.55;;;7.50;;
72584;SDS011;60618;40.084;32.908;2022-11-20T15:26:11;16.02;;;6.95;;
72584;SDS011;60618;40.084;32.908;2022-11-20T15:28:46;18.38;;;7.53;;
72584;SDS011;60618;40.084;32.908;2022-11-20T15:31:14;13.77;;;6.75;;
72584;SDS011;60618;40.084;32.908;2022-11-20T15:33:42;17.80;;;7.30;;
72584;SDS011;60618;40.084;32.908;2022-11-20T15:36:09;15.77;;;6.20;;
72584;SDS011;60618;40.084;32.908;2022-11-20T15:38:37;18.77;;;6.40;;
72584;SDS011;60618;40.084;32.908;2022-11-20T15:41:03;13.52;;;5.60;;
72584;SDS011;60618;40.084;32.908;2022-11-20T15:43:31;13.50;;;6.18;;
72584;SDS011;60618;40.084;32.908;2022-11-20T15:46:02;18.20;;;6.23;;
72584;SDS011;60618;40.084;32.908;2022-11-20T15:48:44;14.57;;;6.15;;
72584;SDS011;60618;40.084;32.908;2022-11-20T15:53:54;18.88;;;8.50;;
72584;SDS011;60618;40.084;32.908;2022-11-20T15:56:22;17.40;;;7.68;;
72584;SDS011;60618;40.084;32.908;2022-11-20T15:58:49;17.30;;;6.80;;
72584;SDS011;60618;40.084;32.908;2022-11-20T16:01:19;17.17;;;7.45;;
72584;SDS011;60618;40.084;32.908;2022-11-20T16:03:47;12.10;;;5.85;;
72584;SDS011;60618;40.084;32.908;2022-11-20T16:06:14;17.25;;;7.20;;
72584;SDS011;60618;40.084;32.908;2022-11-20T16:08:42;18.30;;;7.68;;
72584;SDS011;60618;40.084;32.908;2022-11-20T16:11:12;15.07;;;6.07;;
72584;SDS011;60618;40.084;32.908;2022-11-20T16:13:41;16.23;;;6.68;;
72584;SDS011;60618;40.084;32.908;2022-11-20T16:16:13;17.13;;;6.05;;
72584;SDS011;60618;40.084;32.908;2022-11-20T16:18:49;15.45;;;6.30;;
72584;SDS011;60618;40.084;32.908;2022-11-20T16:21:16;14.80;;;6.38;;
72584;SDS011;60618;40.084;32.908;2022-11-20T16:23:43;16.27;;;6.50;;
72584;SDS011;60618;40.084;32.908;2022-11-20T16:26:12;13.90;;;6.05;;
72584;SDS011;60618;40.084;32.908;2022-11-20T16:28:40;14.25;;;6.40;;
72584;SDS011;60618;40.084;32.908;2022-11-20T16:33:41;16.38;;;7.30;;
72584;SDS011;60618;40.084;32.908;2022-11-20T16:38:41;17.20;;;6.97;;
72584;SDS011;60618;40.084;32.908;2022-11-20T16:41:08;15.05;;;5.95;;
72584;SDS011;60618;40.084;32.908;2022-11-20T16:43:36;18.77;;;8.40;;
72584;SDS011;60618;40.084;32.908;2022-11-20T16:46:03;25.70;;;11.15;;
72584;SDS011;60618;40.084;32.908;2022-11-20T16:48:30;34.97;;;15.47;;
72584;SDS011;60618;40.084;32.908;2022-11-20T16:50:57;36.88;;;15.35;;
72584;SDS011;60618;40.084;32.908;2022-11-20T16:53:23;27.80;;;12.80;;
72584;SDS011;60618;40.084;32.908;2022-11-20T16:55:50;24.20;;;11.68;;
72584;SDS011;60618;40.084;32.908;2022-11-20T16:58:17;24.17;;;12.23;;
72584;SDS011;60618;40.084;32.908;2022-11-20T17:00:44;20.23;;;10.10;;